sensor_id;sensor_type;location;lat;lon;timestamp;P1;durP1;ratioP1;P2;durP2;ratioP2
46561;SDS011;32289;42.688;23.330;2023-12-20T00:01:15;90.88;;;36.78;;
46561;SDS011;32289;42.688;23.330;2023-12-20T00:04:56;103.43;;;44.00;;
46561;SDS011;32289;42.688;23.330;2023-12-20T00:08:36;97.88;;;39.10;;
46561;SDS011;32289;42.688;23.330;2023-12-20T00:12:17;92.35;;;43.90;;
46561;SDS011;32289;42.688;23.330;2023-12-20T00:15:58;101.28;;;44.90;;
46561;SDS011;32289;42.688;23.330;2023-12-20T00:19:39;99.10;;;42.05;;
46561;SDS011;32289;42.688;23.330;2023-12-20T00:23:20;89.40;;;37.92;;
46561;SDS011;32289;42.688;23.330;2023-12-20T00:27:01;93.03;;;43.58;;
46561;SDS011;32289;42.688;23.330;2023-12-20T00:30:42;101.07;;;43.20;;
46561;SDS011;32289;42.688;23.330;2023-12-20T00:34:23;100.55;;;45.72;;
46561;SDS011;32289;42.688;23.330;2023-12-20T00:38:04;109.03;;;44.75;;
46561;SDS011;32289;42.688;23.330;2023-12-20T00:41:46;100.82;;;44.08;;
46561;SDS011;32289;42.688;23.330;2023-12-20T00:45:27;107.30;;;47.25;;
46561;SDS011;32289;42.688;23.330;2023-12-20T00:49:08;102.82;;;45.80;;
46561;SDS011;32289;42.688;23.330;2023-12-20T00:52:49;121.25;;;51.40;;
46561;SDS011;32289;42.688;23.330;2023-12-20T00:56:29;111.32;;;47.13;;
46561;SDS011;32289;42.688;23.330;2023-12-20T01:00:10;118.38;;;43.50;;
46561;SDS011;32289;42.688;23.330;2023-12-20T01:03:51;107.07;;;43.90;;
46561;SDS011;32289;42.688;23.330;2023-12-20T01:07:32;123.57;;;48.42;;
46561;SDS011;32289;42.688;23.330;2023-12-20T01:11:13;136.80;;;53.90;;
46561;SDS011;32289;42.688;23.330;2023-12-20T01:14:54;119.78;;;49.50;;
46561;SDS011;32289;42.688;23.330;2023-12-20T01:18:34;128.02;;;55.97;;
46561;SDS011;32289;42.688;23.330;2023-12-20T01:22:15;185.07;;;78.70;;
46561;SDS011;32289;42.688;23.330;2023-12-20T01:25:56;152.65;;;66.63;;
46561;SDS011;32289;42.688;23.330;2023-12-20T01:29:36;134.35;;;53.60;;
46561;SDS011;32289;42.688;23.330;2023-12-20T01:33:17;158.07;;;59.25;;
46561;SDS011;32289;42.688;23.330;2023-12-20T01:36:58;152.30;;;60.15;;
46561;SDS011;32289;42.688;23.330;2023-12-20T01:40:38;174.18;;;68.13;;
46561;SDS011;32289;42.688;23.330;2023-12-20T01:44:19;191.20;;;76.18;;
46561;SDS011;32289;42.688;23.330;2023-12-20T01:48:00;204.75;;;75.93;;
46561;SDS011;32289;42.688;23.330;2023-12-20T01:51:43;186.13;;;75.28;;
46561;SDS011;32289;42.688;23.330;2023-12-20T01:55:24;207.32;;;83.60;;
46561;SDS011;32289;42.688;23.330;2023-12-20T01:59:07;191.25;;;76.97;;
46561;SDS011;32289;42.688;23.330;2023-12-20T02:02:49;191.15;;;76.43;;
46561;SDS011;32289;42.688;23.330;2023-12-20T02:06:32;171.18;;;76.88;;
46561;SDS011;32289;42.688;23.330;2023-12-20T02:10:14;188.00;;;72.82;;
46561;SDS011;32289;42.688;23.330;2023-12-20T02:13:56;155.88;;;67.10;;
46561;SDS011;32289;42.688;23.330;2023-12-20T02:17:36;165.48;;;67.72;;
46561;SDS011;32289;42.688;23.330;2023-12-20T02:21:23;165.10;;;69.25;;
46561;SDS011;32289;42.688;23.330;2023-12-20T02:25:16;156.80;;;65.82;;
46561;SDS011;32289;42.688;23.330;2023-12-20T02:28:56;166.40;;;66.55;;
46561;SDS011;32289;42.688;23.330;2023-12-20T02:32:37;147.75;;;62.40;;
46561;SDS011;32289;42.688;23.330;2023-12-20T02:36:18;149.52;;;57.55;;
46561;SDS011;32289;42.688;23.330;2023-12-20T02:39:59;137.25;;;56.05;;
46561;SDS011;32289;42.688;23.330;2023-12-20T02:43:39;136.57;;;55.20;;
46561;SDS011;32289;42.688;23.330;2023-12-20T02:47:20;127.15;;;53.28;;
46561;SDS011;32289;42.688;23.330;2023-12-20T02:51:01;123.00;;;49.40;;
46561;SDS011;32289;42.688;23.330;2023-12-20T02:54:41;97.32;;;43.65;;
46561;SDS011;32289;42.688;23.330;2023-12-20T02:58:22;104.60;;;42.55;;
46561;SDS011;32289;42.688;23.330;2023-12-20T03:02:03;96.13;;;41.83;;
46561;SDS011;32289;42.688;23.330;2023-12-20T03:05:45;101.05;;;46.00;;
46561;SDS011;32289;42.688;23.330;2023-12-20T03:09:26;96.90;;;41.22;;
46561;SDS011;32289;42.688;23.330;2023-12-20T03:13:07;102.90;;;42.38;;
46561;SDS011;32289;42.688;23.330;2023-12-20T03:16:52;111.00;;;44.25;;
46561;SDS011;32289;42.688;23.330;2023-12-20T03:20:32;111.35;;;44.13;;
46561;SDS011;32289;42.688;23.330;2023-12-20T03:24:14;105.63;;;41.28;;
46561;SDS011;32289;42.688;23.330;2023-12-20T03:27:54;112.90;;;43.45;;
46561;SDS011;32289;42.688;23.330;2023-12-20T03:31:35;95.75;;;39.40;;
46561;SDS011;32289;42.688;23.330;2023-12-20T03:35:16;104.30;;;36.72;;
46561;SDS011;32289;42.688;23.330;2023-12-20T03:38:56;96.70;;;38.42;;
46561;SDS011;32289;42.688;23.330;2023-12-20T03:42:37;86.07;;;36.00;;
46561;SDS011;32289;42.688;23.330;2023-12-20T03:46:18;96.75;;;37.63;;
46561;SDS011;32289;42.688;23.330;2023-12-20T03:49:58;87.53;;;34.58;;
46561;SDS011;32289;42.688;23.330;2023-12-20T03:53:39;92.90;;;35.15;;
46561;SDS011;32289;42.688;23.330;2023-12-20T03:57:20;102.97;;;36.30;;
46561;SDS011;32289;42.688;23.330;2023-12-20T04:01:01;109.00;;;39.70;;
46561;SDS011;32289;42.688;23.330;2023-12-20T04:04:42;84.07;;;36.80;;
46561;SDS011;32289;42.688;23.330;2023-12-20T04:08:23;86.95;;;37.83;;
46561;SDS011;32289;42.688;23.330;2023-12-20T04:12:04;101.07;;;37.55;;
46561;SDS011;32289;42.688;23.330;2023-12-20T04:15:45;92.38;;;36.30;;
46561;SDS011;32289;42.688;23.330;2023-12-20T04:19:26;76.53;;;33.90;;
46561;SDS011;32289;42.688;23.330;2023-12-20T04:23:07;92.88;;;33.33;;
46561;SDS011;32289;42.688;23.330;2023-12-20T04:26:48;95.18;;;38.00;;
46561;SDS011;32289;42.688;23.330;2023-12-20T04:30:28;100.57;;;36.67;;
46561;SDS011;32289;42.688;23.330;2023-12-20T04:34:09;111.60;;;37.10;;
46561;SDS011;32289;42.688;23.330;2023-12-20T04:37:50;78.22;;;32.97;;
46561;SDS011;32289;42.688;23.330;2023-12-20T04:41:30;87.00;;;37.60;;
46561;SDS011;32289;42.688;23.330;2023-12-20T04:45:11;92.95;;;35.75;;
46561;SDS011;32289;42.688;23.330;2023-12-20T04:48:53;98.75;;;34.35;;
46561;SDS011;32289;42.688;23.330;2023-12-20T04:52:34;90.00;;;35.33;;
46561;SDS011;32289;42.688;23.330;2023-12-20T04:56:15;87.47;;;34.90;;
46561;SDS011;32289;42.688;23.330;2023-12-20T04:59:55;91.85;;;34.58;;
46561;SDS011;32289;42.688;23.330;2023-12-20T05:03:36;92.13;;;35.47;;
46561;SDS011;32289;42.688;23.330;2023-12-20T05:07:17;91.00;;;35.83;;
46561;SDS011;32289;42.688;23.330;2023-12-20T05:10:58;93.40;;;37.83;;
46561;SDS011;32289;42.688;23.330;2023-12-20T05:14:38;95.38;;;35.67;;
46561;SDS011;32289;42.688;23.330;2023-12-20T05:18:20;97.70;;;37.15;;
46561;SDS011;32289;42.688;23.330;2023-12-20T05:22:01;104.20;;;39.85;;
46561;SDS011;32289;42.688;23.330;2023-12-20T05:25:42;109.85;;;39.97;;
46561;SDS011;32289;42.688;23.330;2023-12-20T05:29:23;107.38;;;40.15;;
46561;SDS011;32289;42.688;23.330;2023-12-20T05:33:04;105.28;;;39.97;;
46561;SDS011;32289;42.688;23.330;2023-12-20T05:36:44;108.65;;;41.15;;
46561;SDS011;32289;42.688;23.330;2023-12-20T05:40:25;102.60;;;39.47;;
46561;SDS011;32289;42.688;23.330;2023-12-20T05:44:06;109.30;;;41.30;;
46561;SDS011;32289;42.688;23.330;2023-12-20T05:47:47;99.78;;;39.78;;
46561;SDS011;32289;42.688;23.330;2023-12-20T05:51:27;102.72;;;38.85;;
46561;SDS011;32289;42.688;23.330;2023-12-20T05:55:08;105.30;;;38.00;;
46561;SDS011;32289;42.688;23.330;2023-12-20T05:58:49;108.05;;;37.55;;
46561;SDS011;32289;42.688;23.330;2023-12-20T06:02:29;103.65;;;36.63;;
46561;SDS011;32289;42.688;23.330;2023-12-20T06:06:10;96.28;;;39.15;;
46561;SDS011;32289;42.688;23.330;2023-12-20T06:09:51;110.07;;;39.25;;
46561;SDS011;32289;42.688;23.330;2023-12-20T06:13:31;100.38;;;36.80;;
46561;SDS011;32289;42.688;23.330;2023-12-20T06:17:12;113.47;;;39.05;;
46561;SDS011;32289;42.688;23.330;2023-12-20T06:20:53;97.50;;;38.58;;
46561;SDS011;32289;42.688;23.330;2023-12-20T06:24:34;95.63;;;36.88;;
46561;SDS011;32289;42.688;23.330;2023-12-20T06:28:15;94.90;;;38.03;;
46561;SDS011;32289;42.688;23.330;2023-12-20T06:31:56;100.05;;;36.17;;
46561;SDS011;32289;42.688;23.330;2023-12-20T06:35:36;101.55;;;38.20;;
46561;SDS011;32289;42.688;23.330;2023-12-20T06:39:17;101.75;;;37.92;;
46561;SDS011;32289;42.688;23.330;2023-12-20T06:42:58;98.53;;;36.35;;
46561;SDS011;32289;42.688;23.330;2023-12-20T06:46:39;92.47;;;36.17;;
46561;SDS011;32289;42.688;23.330;2023-12-20T06:50:20;98.03;;;34.15;;
46561;SDS011;32289;42.688;23.330;2023-12-20T06:54:01;99.88;;;37.47;;
46561;SDS011;32289;42.688;23.330;2023-12-20T06:57:42;97.60;;;33.05;;
46561;SDS011;32289;42.688;23.330;2023-12-20T07:01:23;96.20;;;34.15;;
46561;SDS011;32289;42.688;23.330;2023-12-20T07:05:04;81.95;;;33.30;;
46561;SDS011;32289;42.688;23.330;2023-12-20T07:08:45;101.35;;;35.42;;
46561;SDS011;32289;42.688;23.330;2023-12-20T07:12:26;93.03;;;34.78;;
46561;SDS011;32289;42.688;23.330;2023-12-20T07:16:06;94.72;;;34.92;;
46561;SDS011;32289;42.688;23.330;2023-12-20T07:19:47;101.13;;;37.05;;
46561;SDS011;32289;42.688;23.330;2023-12-20T07:23:27;91.70;;;37.00;;
46561;SDS011;32289;42.688;23.330;2023-12-20T07:27:08;97.25;;;37.00;;
46561;SDS011;32289;42.688;23.330;2023-12-20T07:30:49;101.35;;;35.13;;
46561;SDS011;32289;42.688;23.330;2023-12-20T07:34:30;97.40;;;38.72;;
46561;SDS011;32289;42.688;23.330;2023-12-20T07:38:10;95.72;;;38.40;;
46561;SDS011;32289;42.688;23.330;2023-12-20T07:41:52;97.97;;;35.28;;
46561;SDS011;32289;42.688;23.330;2023-12-20T07:45:33;103.60;;;36.78;;
46561;SDS011;32289;42.688;23.330;2023-12-20T07:49:13;79.47;;;32.97;;
46561;SDS011;32289;42.688;23.330;2023-12-20T07:52:54;99.82;;;35.60;;
46561;SDS011;32289;42.688;23.330;2023-12-20T07:56:35;89.93;;;35.55;;
46561;SDS011;32289;42.688;23.330;2023-12-20T08:00:16;79.15;;;32.47;;
46561;SDS011;32289;42.688;23.330;2023-12-20T08:03:57;83.43;;;34.17;;
46561;SDS011;32289;42.688;23.330;2023-12-20T08:07:38;85.53;;;35.42;;
46561;SDS011;32289;42.688;23.330;2023-12-20T08:11:19;96.82;;;37.58;;
46561;SDS011;32289;42.688;23.330;2023-12-20T08:14:59;89.43;;;38.47;;
46561;SDS011;32289;42.688;23.330;2023-12-20T08:18:40;89.90;;;34.92;;
46561;SDS011;32289;42.688;23.330;2023-12-20T08:22:21;79.40;;;34.30;;
46561;SDS011;32289;42.688;23.330;2023-12-20T08:26:05;91.95;;;34.95;;
46561;SDS011;32289;42.688;23.330;2023-12-20T08:29:46;85.40;;;35.95;;
46561;SDS011;32289;42.688;23.330;2023-12-20T08:33:27;94.00;;;36.50;;
46561;SDS011;32289;42.688;23.330;2023-12-20T08:37:09;84.72;;;35.88;;
46561;SDS011;32289;42.688;23.330;2023-12-20T08:40:50;83.30;;;36.72;;
46561;SDS011;32289;42.688;23.330;2023-12-20T08:44:30;81.65;;;35.75;;
46561;SDS011;32289;42.688;23.330;2023-12-20T08:48:11;81.35;;;34.80;;
46561;SDS011;32289;42.688;23.330;2023-12-20T08:51:52;89.03;;;35.97;;
46561;SDS011;32289;42.688;23.330;2023-12-20T08:55:32;74.47;;;36.47;;
46561;SDS011;32289;42.688;23.330;2023-12-20T08:59:13;90.10;;;38.72;;
46561;SDS011;32289;42.688;23.330;2023-12-20T09:02:54;84.95;;;35.85;;
46561;SDS011;32289;42.688;23.330;2023-12-20T09:06:35;94.00;;;36.72;;
46561;SDS011;32289;42.688;23.330;2023-12-20T09:10:15;85.05;;;36.55;;
46561;SDS011;32289;42.688;23.330;2023-12-20T09:13:56;82.63;;;35.42;;
46561;SDS011;32289;42.688;23.330;2023-12-20T09:17:37;75.15;;;32.25;;
46561;SDS011;32289;42.688;23.330;2023-12-20T09:21:17;80.97;;;32.03;;
46561;SDS011;32289;42.688;23.330;2023-12-20T09:24:58;81.50;;;34.88;;
46561;SDS011;32289;42.688;23.330;2023-12-20T09:28:39;74.55;;;31.65;;
46561;SDS011;32289;42.688;23.330;2023-12-20T09:32:20;75.63;;;31.70;;
46561;SDS011;32289;42.688;23.330;2023-12-20T09:36:01;76.97;;;31.75;;
46561;SDS011;32289;42.688;23.330;2023-12-20T09:39:41;73.38;;;31.45;;
46561;SDS011;32289;42.688;23.330;2023-12-20T09:43:23;92.93;;;36.83;;
46561;SDS011;32289;42.688;23.330;2023-12-20T09:47:05;100.90;;;37.00;;
46561;SDS011;32289;42.688;23.330;2023-12-20T09:50:47;93.20;;;33.92;;
46561;SDS011;32289;42.688;23.330;2023-12-20T09:54:28;107.30;;;36.38;;
46561;SDS011;32289;42.688;23.330;2023-12-20T09:58:09;95.30;;;35.28;;
46561;SDS011;32289;42.688;23.330;2023-12-20T10:01:50;95.28;;;33.30;;
46561;SDS011;32289;42.688;23.330;2023-12-20T10:05:33;99.05;;;36.92;;
46561;SDS011;32289;42.688;23.330;2023-12-20T10:09:14;94.72;;;34.97;;
46561;SDS011;32289;42.688;23.330;2023-12-20T10:13:08;95.65;;;31.90;;
46561;SDS011;32289;42.688;23.330;2023-12-20T10:16:50;99.15;;;33.67;;
46561;SDS011;32289;42.688;23.330;2023-12-20T10:20:31;86.82;;;33.72;;
46561;SDS011;32289;42.688;23.330;2023-12-20T10:24:16;83.57;;;33.45;;
46561;SDS011;32289;42.688;23.330;2023-12-20T10:28:11;93.45;;;36.95;;
46561;SDS011;32289;42.688;23.330;2023-12-20T10:31:53;80.35;;;34.95;;
46561;SDS011;32289;42.688;23.330;2023-12-20T10:35:38;86.95;;;35.90;;
46561;SDS011;32289;42.688;23.330;2023-12-20T10:39:19;85.70;;;40.25;;
46561;SDS011;32289;42.688;23.330;2023-12-20T10:43:01;91.68;;;39.42;;
46561;SDS011;32289;42.688;23.330;2023-12-20T10:46:43;109.43;;;42.67;;
46561;SDS011;32289;42.688;23.330;2023-12-20T10:50:30;103.78;;;45.08;;
46561;SDS011;32289;42.688;23.330;2023-12-20T10:54:11;108.65;;;42.60;;
46561;SDS011;32289;42.688;23.330;2023-12-20T10:57:52;115.55;;;43.22;;
46561;SDS011;32289;42.688;23.330;2023-12-20T11:01:40;109.75;;;44.08;;
46561;SDS011;32289;42.688;23.330;2023-12-20T11:09:26;103.85;;;47.05;;
46561;SDS011;32289;42.688;23.330;2023-12-20T11:13:14;97.90;;;42.25;;
46561;SDS011;32289;42.688;23.330;2023-12-20T11:17:06;99.80;;;41.03;;
46561;SDS011;32289;42.688;23.330;2023-12-20T11:20:53;101.22;;;39.58;;
46561;SDS011;32289;42.688;23.330;2023-12-20T11:24:34;96.93;;;38.83;;
46561;SDS011;32289;42.688;23.330;2023-12-20T11:28:21;84.50;;;37.63;;
46561;SDS011;32289;42.688;23.330;2023-12-20T11:32:03;94.28;;;35.65;;
46561;SDS011;32289;42.688;23.330;2023-12-20T11:36:12;100.38;;;38.25;;
46561;SDS011;32289;42.688;23.330;2023-12-20T11:39:55;109.43;;;37.63;;
46561;SDS011;32289;42.688;23.330;2023-12-20T11:43:37;99.68;;;38.05;;
46561;SDS011;32289;42.688;23.330;2023-12-20T11:47:18;93.68;;;36.40;;
46561;SDS011;32289;42.688;23.330;2023-12-20T11:51:00;111.90;;;42.60;;
46561;SDS011;32289;42.688;23.330;2023-12-20T11:54:41;111.43;;;44.75;;
46561;SDS011;32289;42.688;23.330;2023-12-20T11:58:21;102.43;;;38.45;;
46561;SDS011;32289;42.688;23.330;2023-12-20T12:02:02;109.53;;;43.38;;
46561;SDS011;32289;42.688;23.330;2023-12-20T12:05:43;101.63;;;40.42;;
46561;SDS011;32289;42.688;23.330;2023-12-20T12:09:26;100.00;;;40.05;;
46561;SDS011;32289;42.688;23.330;2023-12-20T12:13:06;104.72;;;42.50;;
46561;SDS011;32289;42.688;23.330;2023-12-20T12:16:49;110.80;;;42.95;;
46561;SDS011;32289;42.688;23.330;2023-12-20T12:20:30;102.68;;;41.45;;
46561;SDS011;32289;42.688;23.330;2023-12-20T12:24:11;93.47;;;41.47;;
46561;SDS011;32289;42.688;23.330;2023-12-20T12:27:52;93.13;;;37.75;;
46561;SDS011;32289;42.688;23.330;2023-12-20T12:31:33;100.03;;;42.45;;
46561;SDS011;32289;42.688;23.330;2023-12-20T12:35:14;98.65;;;39.70;;
46561;SDS011;32289;42.688;23.330;2023-12-20T12:38:56;110.47;;;45.22;;
46561;SDS011;32289;42.688;23.330;2023-12-20T12:42:38;112.63;;;46.13;;
46561;SDS011;32289;42.688;23.330;2023-12-20T12:46:19;112.57;;;45.70;;
46561;SDS011;32289;42.688;23.330;2023-12-20T12:49:59;100.43;;;42.17;;
46561;SDS011;32289;42.688;23.330;2023-12-20T12:53:40;101.70;;;40.45;;
46561;SDS011;32289;42.688;23.330;2023-12-20T12:57:21;116.20;;;45.47;;
46561;SDS011;32289;42.688;23.330;2023-12-20T13:01:02;119.05;;;41.88;;
46561;SDS011;32289;42.688;23.330;2023-12-20T13:04:43;108.95;;;40.80;;
46561;SDS011;32289;42.688;23.330;2023-12-20T13:08:24;102.75;;;39.47;;
46561;SDS011;32289;42.688;23.330;2023-12-20T13:12:08;108.75;;;40.38;;
46561;SDS011;32289;42.688;23.330;2023-12-20T13:15:48;117.43;;;43.22;;
46561;SDS011;32289;42.688;23.330;2023-12-20T13:19:33;129.23;;;41.35;;
46561;SDS011;32289;42.688;23.330;2023-12-20T13:23:13;117.78;;;41.03;;
46561;SDS011;32289;42.688;23.330;2023-12-20T13:26:54;125.35;;;41.65;;
46561;SDS011;32289;42.688;23.330;2023-12-20T13:30:35;118.32;;;39.47;;
46561;SDS011;32289;42.688;23.330;2023-12-20T13:34:16;120.25;;;40.10;;
46561;SDS011;32289;42.688;23.330;2023-12-20T13:37:57;119.82;;;41.60;;
46561;SDS011;32289;42.688;23.330;2023-12-20T13:41:38;102.55;;;35.60;;
46561;SDS011;32289;42.688;23.330;2023-12-20T13:45:19;92.25;;;34.40;;
46561;SDS011;32289;42.688;23.330;2023-12-20T13:49:00;92.90;;;35.35;;
46561;SDS011;32289;42.688;23.330;2023-12-20T13:52:41;93.72;;;34.35;;
46561;SDS011;32289;42.688;23.330;2023-12-20T13:56:22;91.13;;;32.40;;
46561;SDS011;32289;42.688;23.330;2023-12-20T14:00:04;95.63;;;34.90;;
46561;SDS011;32289;42.688;23.330;2023-12-20T14:03:53;97.85;;;33.92;;
46561;SDS011;32289;42.688;23.330;2023-12-20T14:07:33;104.35;;;34.97;;
46561;SDS011;32289;42.688;23.330;2023-12-20T14:11:14;116.15;;;39.25;;
46561;SDS011;32289;42.688;23.330;2023-12-20T14:14:55;120.10;;;38.20;;
46561;SDS011;32289;42.688;23.330;2023-12-20T14:18:36;109.78;;;39.40;;
46561;SDS011;32289;42.688;23.330;2023-12-20T14:22:17;117.97;;;38.30;;
46561;SDS011;32289;42.688;23.330;2023-12-20T14:25:58;99.63;;;35.88;;
46561;SDS011;32289;42.688;23.330;2023-12-20T14:29:39;124.22;;;38.55;;
46561;SDS011;32289;42.688;23.330;2023-12-20T14:33:20;107.35;;;36.50;;
46561;SDS011;32289;42.688;23.330;2023-12-20T14:37:01;130.02;;;41.58;;
46561;SDS011;32289;42.688;23.330;2023-12-20T14:40:42;114.68;;;39.08;;
46561;SDS011;32289;42.688;23.330;2023-12-20T14:44:23;115.03;;;39.28;;
46561;SDS011;32289;42.688;23.330;2023-12-20T14:48:04;122.93;;;37.75;;
46561;SDS011;32289;42.688;23.330;2023-12-20T14:51:45;110.10;;;36.97;;
46561;SDS011;32289;42.688;23.330;2023-12-20T14:55:27;95.35;;;33.67;;
46561;SDS011;32289;42.688;23.330;2023-12-20T14:59:09;115.13;;;37.42;;
46561;SDS011;32289;42.688;23.330;2023-12-20T15:02:50;122.47;;;37.42;;
46561;SDS011;32289;42.688;23.330;2023-12-20T15:06:31;121.55;;;37.63;;
46561;SDS011;32289;42.688;23.330;2023-12-20T15:10:13;117.40;;;41.42;;
46561;SDS011;32289;42.688;23.330;2023-12-20T15:13:54;104.75;;;34.85;;
46561;SDS011;32289;42.688;23.330;2023-12-20T15:17:36;119.28;;;36.72;;
46561;SDS011;32289;42.688;23.330;2023-12-20T15:21:19;107.90;;;34.58;;
46561;SDS011;32289;42.688;23.330;2023-12-20T15:24:59;120.07;;;36.80;;
46561;SDS011;32289;42.688;23.330;2023-12-20T15:28:41;102.97;;;36.55;;
46561;SDS011;32289;42.688;23.330;2023-12-20T15:32:22;119.28;;;39.22;;
46561;SDS011;32289;42.688;23.330;2023-12-20T15:36:03;107.15;;;37.15;;
46561;SDS011;32289;42.688;23.330;2023-12-20T15:39:44;113.38;;;35.47;;
46561;SDS011;32289;42.688;23.330;2023-12-20T15:43:25;120.20;;;38.90;;
46561;SDS011;32289;42.688;23.330;2023-12-20T15:47:06;118.32;;;39.60;;
46561;SDS011;32289;42.688;23.330;2023-12-20T15:50:46;130.65;;;39.85;;
46561;SDS011;32289;42.688;23.330;2023-12-20T15:54:27;126.43;;;41.22;;
46561;SDS011;32289;42.688;23.330;2023-12-20T15:58:08;117.72;;;35.28;;
46561;SDS011;32289;42.688;23.330;2023-12-20T16:01:48;116.15;;;35.42;;
46561;SDS011;32289;42.688;23.330;2023-12-20T16:05:29;127.00;;;38.90;;
46561;SDS011;32289;42.688;23.330;2023-12-20T16:09:10;125.20;;;38.40;;
46561;SDS011;32289;42.688;23.330;2023-12-20T16:12:52;106.55;;;35.78;;
46561;SDS011;32289;42.688;23.330;2023-12-20T16:16:33;136.23;;;41.45;;
46561;SDS011;32289;42.688;23.330;2023-12-20T16:20:14;117.22;;;38.53;;
46561;SDS011;32289;42.688;23.330;2023-12-20T16:23:54;120.95;;;38.42;;
46561;SDS011;32289;42.688;23.330;2023-12-20T16:27:35;131.52;;;43.58;;
46561;SDS011;32289;42.688;23.330;2023-12-20T16:31:16;144.60;;;44.08;;
46561;SDS011;32289;42.688;23.330;2023-12-20T16:34:57;132.90;;;39.58;;
46561;SDS011;32289;42.688;23.330;2023-12-20T16:38:38;140.25;;;39.72;;
46561;SDS011;32289;42.688;23.330;2023-12-20T16:42:19;132.27;;;41.00;;
46561;SDS011;32289;42.688;23.330;2023-12-20T16:46:00;171.30;;;43.17;;
46561;SDS011;32289;42.688;23.330;2023-12-20T16:49:40;155.75;;;44.25;;
46561;SDS011;32289;42.688;23.330;2023-12-20T16:53:21;146.10;;;41.22;;
46561;SDS011;32289;42.688;23.330;2023-12-20T16:57:02;157.70;;;44.72;;
46561;SDS011;32289;42.688;23.330;2023-12-20T17:00:42;164.48;;;45.03;;
46561;SDS011;32289;42.688;23.330;2023-12-20T17:04:23;136.68;;;46.63;;
46561;SDS011;32289;42.688;23.330;2023-12-20T17:08:04;150.48;;;43.63;;
46561;SDS011;32289;42.688;23.330;2023-12-20T17:11:44;170.13;;;47.03;;
46561;SDS011;32289;42.688;23.330;2023-12-20T17:15:25;160.57;;;43.90;;
46561;SDS011;32289;42.688;23.330;2023-12-20T17:19:06;173.15;;;46.03;;
46561;SDS011;32289;42.688;23.330;2023-12-20T17:22:46;167.85;;;50.33;;
46561;SDS011;32289;42.688;23.330;2023-12-20T17:26:27;162.15;;;46.55;;
46561;SDS011;32289;42.688;23.330;2023-12-20T17:30:08;195.98;;;52.00;;
46561;SDS011;32289;42.688;23.330;2023-12-20T17:33:49;187.18;;;49.05;;
46561;SDS011;32289;42.688;23.330;2023-12-20T17:37:30;167.00;;;49.58;;
46561;SDS011;32289;42.688;23.330;2023-12-20T17:41:11;176.52;;;50.55;;
46561;SDS011;32289;42.688;23.330;2023-12-20T17:44:51;169.40;;;50.72;;
46561;SDS011;32289;42.688;23.330;2023-12-20T17:48:32;171.63;;;54.22;;
46561;SDS011;32289;42.688;23.330;2023-12-20T17:52:12;179.90;;;54.28;;
46561;SDS011;32289;42.688;23.330;2023-12-20T17:55:53;186.68;;;58.15;;
46561;SDS011;32289;42.688;23.330;2023-12-20T17:59:34;153.98;;;52.33;;
46561;SDS011;32289;42.688;23.330;2023-12-20T18:03:14;143.95;;;49.38;;
46561;SDS011;32289;42.688;23.330;2023-12-20T18:06:55;165.95;;;49.22;;
46561;SDS011;32289;42.688;23.330;2023-12-20T18:10:36;158.38;;;49.25;;
46561;SDS011;32289;42.688;23.330;2023-12-20T18:14:16;177.57;;;52.72;;
46561;SDS011;32289;42.688;23.330;2023-12-20T18:17:57;161.30;;;49.88;;
46561;SDS011;32289;42.688;23.330;2023-12-20T18:21:38;151.07;;;47.10;;
46561;SDS011;32289;42.688;23.330;2023-12-20T18:25:18;151.35;;;47.03;;
46561;SDS011;32289;42.688;23.330;2023-12-20T18:28:59;136.98;;;43.55;;
46561;SDS011;32289;42.688;23.330;2023-12-20T18:32:40;148.35;;;46.33;;
46561;SDS011;32289;42.688;23.330;2023-12-20T18:36:20;134.98;;;46.13;;
46561;SDS011;32289;42.688;23.330;2023-12-20T18:40:02;147.82;;;42.75;;
46561;SDS011;32289;42.688;23.330;2023-12-20T18:43:43;140.75;;;43.53;;
46561;SDS011;32289;42.688;23.330;2023-12-20T18:47:24;136.10;;;43.88;;
46561;SDS011;32289;42.688;23.330;2023-12-20T18:51:05;135.27;;;43.35;;
46561;SDS011;32289;42.688;23.330;2023-12-20T18:54:46;159.60;;;49.80;;
46561;SDS011;32289;42.688;23.330;2023-12-20T18:58:26;154.73;;;49.38;;
46561;SDS011;32289;42.688;23.330;2023-12-20T19:02:10;150.80;;;44.83;;
46561;SDS011;32289;42.688;23.330;2023-12-20T19:05:52;165.32;;;51.95;;
46561;SDS011;32289;42.688;23.330;2023-12-20T19:09:33;136.98;;;47.58;;
46561;SDS011;32289;42.688;23.330;2023-12-20T19:13:13;130.80;;;45.28;;
46561;SDS011;32289;42.688;23.330;2023-12-20T19:16:54;160.00;;;53.60;;
46561;SDS011;32289;42.688;23.330;2023-12-20T19:20:39;147.60;;;49.78;;
46561;SDS011;32289;42.688;23.330;2023-12-20T19:24:19;160.80;;;52.35;;
46561;SDS011;32289;42.688;23.330;2023-12-20T19:28:00;173.05;;;49.60;;
46561;SDS011;32289;42.688;23.330;2023-12-20T19:31:41;147.70;;;49.13;;
46561;SDS011;32289;42.688;23.330;2023-12-20T19:35:22;161.52;;;52.97;;
46561;SDS011;32289;42.688;23.330;2023-12-20T19:39:02;157.95;;;49.40;;
46561;SDS011;32289;42.688;23.330;2023-12-20T19:42:43;163.57;;;49.78;;
46561;SDS011;32289;42.688;23.330;2023-12-20T19:46:24;157.50;;;52.67;;
46561;SDS011;32289;42.688;23.330;2023-12-20T19:50:08;149.25;;;47.90;;
46561;SDS011;32289;42.688;23.330;2023-12-20T19:53:48;143.00;;;50.25;;
46561;SDS011;32289;42.688;23.330;2023-12-20T19:57:29;146.75;;;46.65;;
46561;SDS011;32289;42.688;23.330;2023-12-20T20:01:10;181.93;;;48.20;;
46561;SDS011;32289;42.688;23.330;2023-12-20T20:04:51;166.48;;;46.03;;
46561;SDS011;32289;42.688;23.330;2023-12-20T20:08:32;168.27;;;47.78;;
46561;SDS011;32289;42.688;23.330;2023-12-20T20:12:12;147.05;;;46.30;;
46561;SDS011;32289;42.688;23.330;2023-12-20T20:15:55;142.15;;;46.67;;
46561;SDS011;32289;42.688;23.330;2023-12-20T20:19:37;171.13;;;47.30;;
46561;SDS011;32289;42.688;23.330;2023-12-20T20:23:17;156.80;;;43.38;;
46561;SDS011;32289;42.688;23.330;2023-12-20T20:26:58;174.75;;;48.58;;
46561;SDS011;32289;42.688;23.330;2023-12-20T20:30:39;175.88;;;48.47;;
46561;SDS011;32289;42.688;23.330;2023-12-20T20:34:19;135.10;;;44.10;;
46561;SDS011;32289;42.688;23.330;2023-12-20T20:38:00;147.38;;;44.78;;
46561;SDS011;32289;42.688;23.330;2023-12-20T20:41:41;141.00;;;41.10;;
46561;SDS011;32289;42.688;23.330;2023-12-20T20:45:23;145.85;;;43.28;;
46561;SDS011;32289;42.688;23.330;2023-12-20T20:49:05;145.10;;;46.33;;
46561;SDS011;32289;42.688;23.330;2023-12-20T20:52:46;133.38;;;43.80;;
46561;SDS011;32289;42.688;23.330;2023-12-20T20:56:26;148.95;;;42.90;;
46561;SDS011;32289;42.688;23.330;2023-12-20T21:00:07;157.93;;;46.47;;
46561;SDS011;32289;42.688;23.330;2023-12-20T21:03:51;129.80;;;47.08;;
46561;SDS011;32289;42.688;23.330;2023-12-20T21:07:32;156.65;;;48.67;;